createdAt,value
2022-12-13T00:01:54.363Z,21.00
2022-12-13T00:04:26.324Z,22.63
2022-12-13T00:09:23.860Z,21.05
2022-12-13T00:11:51.282Z,23.67
2022-12-13T00:14:18.516Z,23.60
2022-12-13T00:16:48.098Z,23.38
2022-12-13T00:19:16.216Z,21.98
2022-12-13T00:21:44.189Z,21.65
2022-12-13T00:24:11.651Z,22.55
2022-12-13T00:26:39.167Z,21.33
2022-12-13T00:29:07.852Z,21.45
2022-12-13T00:34:24.312Z,22.95
2022-12-13T00:36:53.211Z,22.83
2022-12-13T00:39:20.451Z,21.45
2022-12-13T00:41:47.679Z,20.60
2022-12-13T00:44:15.571Z,21.08
2022-12-13T00:46:43.249Z,21.08
2022-12-13T00:49:15.106Z,19.30
2022-12-13T00:51:42.305Z,19.02
2022-12-13T00:54:10.405Z,19.73
2022-12-13T00:56:38.969Z,17.90
2022-12-13T00:59:06.248Z,17.92
2022-12-13T01:01:36.710Z,18.10
2022-12-13T01:04:06.435Z,17.23
2022-12-13T01:06:37.789Z,18.40
2022-12-13T01:09:08.990Z,18.35
2022-12-13T01:11:36.399Z,19.05
2022-12-13T01:14:03.897Z,19.90
2022-12-13T01:16:31.556Z,19.27
2022-12-13T01:19:00.932Z,17.63
2022-12-13T01:21:29.802Z,17.23
2022-12-13T01:24:05.268Z,16.67
2022-12-13T01:26:33.228Z,16.52
2022-12-13T01:29:01.165Z,18.20
2022-12-13T01:31:28.986Z,17.30
2022-12-13T01:33:56.659Z,17.30
2022-12-13T01:36:27.318Z,19.40
2022-12-13T01:38:58.403Z,16.73
2022-12-13T01:41:28.558Z,17.20
2022-12-13T01:44:03.780Z,18.08
2022-12-13T01:46:34.055Z,18.63
2022-12-13T01:49:19.733Z,17.40
2022-12-13T01:52:19.883Z,23.05
2022-12-13T01:54:52.921Z,21.70
2022-12-13T01:57:21.948Z,22.67
2022-12-13T01:59:50.943Z,26.67
2022-12-13T02:02:18.615Z,29.88
2022-12-13T02:04:50.225Z,27.83
2022-12-13T02:07:23.438Z,28.23
2022-12-13T02:09:56.698Z,31.13
2022-12-13T02:12:30.804Z,30.33
2022-12-13T02:15:08.071Z,25.88
2022-12-13T02:18:13.278Z,23.55
2022-12-13T02:20:46.507Z,20.73
2022-12-13T02:23:28.676Z,20.83
2022-12-13T02:26:13.895Z,17.92
2022-12-13T02:29:30.746Z,17.88
2022-12-13T02:32:13.173Z,16.75
2022-12-13T02:40:47.743Z,16.08
2022-12-13T02:43:17.248Z,17.33
2022-12-13T02:45:52.871Z,17.17
2022-12-13T02:54:14.246Z,14.57
2022-12-13T02:56:42.310Z,17.20
2022-12-13T02:59:15.329Z,14.90
2022-12-13T03:02:21.617Z,14.77
2022-12-13T03:05:29.992Z,15.20
2022-12-13T03:14:07.566Z,16.08
2022-12-13T03:16:38.023Z,16.52
2022-12-13T03:19:09.041Z,16.95
2022-12-13T03:24:24.730Z,16.75
2022-12-13T03:26:53.216Z,18.33
2022-12-13T03:29:23.383Z,14.20
2022-12-13T03:31:53.391Z,15.88
2022-12-13T03:34:22.339Z,15.32
2022-12-13T03:36:50.513Z,15.50
2022-12-13T03:39:18.091Z,14.60
2022-12-13T03:41:45.220Z,14.23
2022-12-13T03:44:12.576Z,14.27
2022-12-13T03:46:39.602Z,15.07
2022-12-13T03:49:06.571Z,14.27
2022-12-13T03:51:34.004Z,14.80
2022-12-13T03:54:01.173Z,14.65
2022-12-13T03:56:28.115Z,14.13
2022-12-13T03:58:55.367Z,14.85
2022-12-13T04:01:23.666Z,15.88
2022-12-13T04:03:50.859Z,17.15
2022-12-13T04:06:22.785Z,15.40
2022-12-13T04:08:52.379Z,14.85
2022-12-13T04:11:42.694Z,14.50
2022-12-13T04:14:12.166Z,13.13
2022-12-13T04:16:39.810Z,13.95
2022-12-13T04:19:06.840Z,14.40
2022-12-13T04:21:34.157Z,14.25
2022-12-13T04:24:01.564Z,14.35
2022-12-13T04:26:29.294Z,13.48
2022-12-13T04:28:56.735Z,14.05
2022-12-13T04:31:24.064Z,12.95
2022-12-13T04:33:51.621Z,13.48
2022-12-13T04:36:31.107Z,13.13
2022-12-13T04:39:22.481Z,14.67
2022-12-13T04:41:52.522Z,14.05
2022-12-13T04:44:28.829Z,14.77
2022-12-13T04:47:01.097Z,14.10
2022-12-13T04:49:32.262Z,13.18
2022-12-13T04:52:01.718Z,14.40
2022-12-13T04:54:36.369Z,13.38
2022-12-13T04:57:06.803Z,13.60
2022-12-13T04:59:34.054Z,13.90
2022-12-13T05:02:01.430Z,13.45
2022-12-13T05:04:32.670Z,12.90
2022-12-13T05:07:01.120Z,13.02
2022-12-13T05:09:30.863Z,13.57
2022-12-13T05:12:01.222Z,13.45
2022-12-13T05:14:32.763Z,13.00
2022-12-13T05:17:02.105Z,13.85
2022-12-13T05:19:30.998Z,12.27
2022-12-13T05:22:01.267Z,12.32
2022-12-13T05:24:32.377Z,12.77
2022-12-13T05:27:00.080Z,14.20
2022-12-13T05:29:28.284Z,13.27
2022-12-13T05:31:55.547Z,12.50
2022-12-13T05:34:22.751Z,11.90
2022-12-13T05:36:49.847Z,11.75
2022-12-13T05:39:29.080Z,11.90
2022-12-13T05:42:01.908Z,12.00
2022-12-13T05:44:31.806Z,11.60
2022-12-13T05:47:02.014Z,12.77
2022-12-13T05:49:30.987Z,12.65
2022-12-13T05:51:58.258Z,12.30
2022-12-13T05:54:25.262Z,13.00
2022-12-13T05:56:52.357Z,12.30
2022-12-13T05:59:19.527Z,13.02
2022-12-13T06:01:46.604Z,12.32
2022-12-13T06:04:22.496Z,12.93
2022-12-13T06:06:52.695Z,11.90
2022-12-13T06:09:21.327Z,12.10
2022-12-13T06:11:50.556Z,12.05
2022-12-13T06:14:22.532Z,12.95
2022-12-13T06:16:53.682Z,12.73
2022-12-13T06:19:22.003Z,12.55
2022-12-13T06:21:50.579Z,12.27
2022-12-13T06:24:21.658Z,12.82
2022-12-13T06:26:51.982Z,12.15
2022-12-13T06:29:24.616Z,12.70
2022-12-13T06:32:02.500Z,13.00
2022-12-13T06:34:33.195Z,13.35
2022-12-13T06:37:02.698Z,11.82
2022-12-13T06:39:32.344Z,14.60
2022-12-13T06:42:06.202Z,13.30
2022-12-13T06:44:34.207Z,13.95
2022-12-13T06:47:10.254Z,14.82
2022-12-13T06:49:41.178Z,15.15
2022-12-13T06:52:12.687Z,14.32
2022-12-13T06:54:40.926Z,14.63
2022-12-13T06:57:08.173Z,14.23
2022-12-13T06:59:37.287Z,15.23
2022-12-13T07:02:05.765Z,15.23
2022-12-13T07:04:33.783Z,15.05
2022-12-13T07:07:01.984Z,14.68
2022-12-13T07:09:31.260Z,13.95
2022-12-13T07:11:59.361Z,15.60
2022-12-13T07:14:26.643Z,15.82
2022-12-13T07:16:59.448Z,15.32
2022-12-13T07:19:35.413Z,16.63
2022-12-13T07:22:06.222Z,15.75
2022-12-13T07:24:35.159Z,15.13
2022-12-13T07:27:04.648Z,15.32
2022-12-13T07:29:31.731Z,18.45
2022-12-13T07:32:01.834Z,15.75
2022-12-13T07:34:30.991Z,16.65
2022-12-13T07:36:58.123Z,15.30
2022-12-13T07:39:26.454Z,16.13
2022-12-13T07:41:56.015Z,14.82
2022-12-13T07:44:24.391Z,14.68
2022-12-13T07:46:51.517Z,14.48
2022-12-13T07:49:18.895Z,15.00
2022-12-13T07:51:47.747Z,16.27
2022-12-13T07:54:14.758Z,14.68
2022-12-13T07:56:42.226Z,14.65
2022-12-13T07:59:11.407Z,15.00
2022-12-13T08:01:38.642Z,16.35
2022-12-13T08:04:06.099Z,14.82
2022-12-13T08:06:37.639Z,15.98
2022-12-13T08:09:06.123Z,16.27
2022-12-13T08:11:35.488Z,15.88
2022-12-13T08:14:02.652Z,16.42
2022-12-13T08:16:30.220Z,14.95
2022-12-13T08:19:01.028Z,15.68
2022-12-13T08:24:29.051Z,16.73
2022-12-13T08:27:02.931Z,15.98
2022-12-13T08:29:34.119Z,17.27
2022-12-13T08:32:11.050Z,16.48
2022-12-13T08:34:38.750Z,18.08
2022-12-13T08:37:06.031Z,14.98
2022-12-13T08:39:36.539Z,16.02
2022-12-13T08:42:15.433Z,16.05
2022-12-13T08:44:53.052Z,15.23
2022-12-13T08:47:23.396Z,15.52
2022-12-13T08:52:23.789Z,16.30
2022-12-13T08:54:51.312Z,16.60
2022-12-13T08:57:18.724Z,16.35
2022-12-13T08:59:46.401Z,16.17
2022-12-13T09:02:17.405Z,17.95
2022-12-13T09:04:44.465Z,15.95
2022-12-13T09:07:12.688Z,17.90
2022-12-13T09:09:39.787Z,15.68
2022-12-13T09:12:11.101Z,17.25
2022-12-13T09:15:01.206Z,16.42
2022-12-13T09:17:36.721Z,15.90
2022-12-13T09:20:10.062Z,17.63
2022-12-13T09:23:02.101Z,17.05
2022-12-13T09:25:36.962Z,16.10
2022-12-13T09:28:07.014Z,17.60
2022-12-13T09:30:34.951Z,15.73
2022-12-13T09:33:18.268Z,17.23
2022-12-13T09:35:49.319Z,17.10
2022-12-13T09:38:16.282Z,17.33
2022-12-13T09:40:45.680Z,16.90
2022-12-13T09:43:43.696Z,15.85
2022-12-13T09:46:23.709Z,16.52
2022-12-13T09:49:01.764Z,17.65
2022-12-13T09:51:43.616Z,17.00
2022-12-13T09:54:19.592Z,18.55
2022-12-13T09:56:51.444Z,19.75
2022-12-13T10:01:49.186Z,18.23
2022-12-13T10:04:19.488Z,18.15
2022-12-13T10:06:46.754Z,19.00
2022-12-13T10:09:14.562Z,18.77
2022-12-13T10:11:51.688Z,17.75
2022-12-13T10:14:32.057Z,19.15
2022-12-13T10:17:04.624Z,19.25
2022-12-13T10:19:40.382Z,17.90
2022-12-13T10:22:16.487Z,19.17
2022-12-13T10:24:56.786Z,20.27
2022-12-13T10:27:36.735Z,19.88
2022-12-13T10:30:28.770Z,20.50
2022-12-13T10:33:04.979Z,19.20
2022-12-13T10:35:34.752Z,19.00
2022-12-13T10:38:31.663Z,19.52
2022-12-13T10:41:01.198Z,19.25
2022-12-13T10:43:30.600Z,19.23
2022-12-13T10:45:57.892Z,20.02
2022-12-13T10:48:38.634Z,19.52
2022-12-13T10:51:13.921Z,14.37
2022-12-13T10:53:47.313Z,17.08
2022-12-13T10:56:22.805Z,20.00
2022-12-13T10:59:21.586Z,19.55
2022-12-13T11:01:48.651Z,20.60
2022-12-13T11:04:27.930Z,18.10
2022-12-13T11:06:57.542Z,18.17
2022-12-13T11:09:38.865Z,19.77
2022-12-13T11:15:06.902Z,19.05
2022-12-13T11:17:46.828Z,17.05
2022-12-13T11:20:23.923Z,17.48
2022-12-13T11:22:59.664Z,20.27
2022-12-13T11:25:33.841Z,19.08
2022-12-13T11:28:34.424Z,18.70
2022-12-13T11:31:36.706Z,19.98
2022-12-13T11:34:48.031Z,20.70
2022-12-13T11:37:29.023Z,20.05
2022-12-13T11:40:04.998Z,18.13
2022-12-13T11:42:52.456Z,20.15
2022-12-13T11:45:23.639Z,20.48
2022-12-13T11:48:06.994Z,21.52
2022-12-13T11:50:42.816Z,20.50
2022-12-13T11:53:33.733Z,20.77
2022-12-13T11:56:44.708Z,20.05
2022-12-13T11:59:39.746Z,19.58
2022-12-13T12:02:33.627Z,18.13
2022-12-13T12:05:05.743Z,20.17
2022-12-13T12:10:49.056Z,17.75
2022-12-13T12:13:33.512Z,18.40
2022-12-13T12:16:06.677Z,18.05
2022-12-13T12:18:34.036Z,18.92
2022-12-13T12:21:09.115Z,17.70
2022-12-13T12:24:00.743Z,17.58
2022-12-13T12:26:43.435Z,19.92
2022-12-13T12:29:18.052Z,18.42
2022-12-13T12:32:11.063Z,26.05
2022-12-13T12:34:57.433Z,25.30
2022-12-13T12:37:37.926Z,18.60
2022-12-13T12:41:14.150Z,17.35
2022-12-13T12:43:38.840Z,17.05
2022-12-13T12:47:08.843Z,17.88
2022-12-13T12:50:09.285Z,17.92
2022-12-13T12:53:11.219Z,18.08
2022-12-13T12:56:02.655Z,12.70
2022-12-13T12:58:41.676Z,18.38
2022-12-13T13:01:33.443Z,18.30
2022-12-13T13:04:08.357Z,19.75
2022-12-13T13:07:01.510Z,18.85
2022-12-13T13:11:58.191Z,18.42
2022-12-13T13:14:35.455Z,18.02
2022-12-13T13:17:17.374Z,16.83
2022-12-13T13:20:40.802Z,16.90
2022-12-13T13:23:40.621Z,17.20
2022-12-13T13:26:26.039Z,17.20
2022-12-13T13:29:15.685Z,16.85
2022-12-13T13:32:28.433Z,17.10
2022-12-13T13:35:35.805Z,16.52
2022-12-13T13:38:27.670Z,16.00
2022-12-13T13:40:55.250Z,16.52
2022-12-13T13:43:32.921Z,17.35
2022-12-13T13:46:03.474Z,21.50
2022-12-13T13:48:58.115Z,23.17
2022-12-13T13:52:25.066Z,25.27
2022-12-13T13:55:24.764Z,18.02
2022-12-13T13:58:10.201Z,16.23
2022-12-13T14:01:14.135Z,16.27
2022-12-13T14:04:10.265Z,17.08
2022-12-13T14:06:49.380Z,16.25
2022-12-13T14:09:45.967Z,17.20
2022-12-13T14:37:37.992Z,20.27
2022-12-13T14:40:44.486Z,20.02
2022-12-13T14:46:08.184Z,20.33
2022-12-13T14:48:50.737Z,21.40
2022-12-13T14:51:37.176Z,20.35
2022-12-13T14:54:07.204Z,22.05
2022-12-13T14:56:34.725Z,19.88
2022-12-13T14:59:05.331Z,18.45
2022-12-13T15:01:37.472Z,19.95
2022-12-13T15:07:06.953Z,18.30
2022-12-13T15:09:39.515Z,20.08
2022-12-13T15:12:25.141Z,21.38
2022-12-13T15:15:24.774Z,21.23
2022-12-13T15:18:17.298Z,20.27
2022-12-13T15:20:47.695Z,21.45
2022-12-13T15:23:22.219Z,19.42
2022-12-13T15:26:01.417Z,18.98
2022-12-13T15:28:34.905Z,17.70
2022-12-13T15:31:04.581Z,18.60
2022-12-13T15:33:35.562Z,19.25
2022-12-13T15:36:11.171Z,18.23
2022-12-13T15:38:41.351Z,19.23
2022-12-13T15:41:19.862Z,19.58
2022-12-13T15:43:56.609Z,19.65
2022-12-13T15:46:32.100Z,19.48
2022-12-13T15:49:02.439Z,19.42
2022-12-13T15:51:30.763Z,19.60
2022-12-13T15:54:02.562Z,19.42
2022-12-13T15:56:32.732Z,21.15
2022-12-13T15:59:02.223Z,20.40
2022-12-13T16:01:35.243Z,20.42
2022-12-13T16:04:05.114Z,18.73
2022-12-13T16:06:33.910Z,19.48
2022-12-13T16:09:04.608Z,17.92
2022-12-13T16:11:59.553Z,19.27
2022-12-13T16:14:31.908Z,19.55
2022-12-13T16:17:25.082Z,17.75
2022-12-13T16:19:54.189Z,18.35
2022-12-13T16:22:24.139Z,18.88
2022-12-13T16:24:52.674Z,19.45
2022-12-13T16:27:20.220Z,18.67
2022-12-13T16:29:47.134Z,18.08
2022-12-13T16:32:14.631Z,17.60
2022-12-13T16:34:41.660Z,17.77
2022-12-13T16:37:26.705Z,17.95
2022-12-13T16:39:55.555Z,17.92
2022-12-13T16:42:26.496Z,18.27
2022-12-13T16:45:17.773Z,18.88
2022-12-13T16:47:48.494Z,17.73
2022-12-13T16:50:18.757Z,20.17
2022-12-13T16:52:46.276Z,16.83
2022-12-13T16:55:13.417Z,18.10
2022-12-13T16:57:40.568Z,16.65
2022-12-13T17:00:10.035Z,16.77
2022-12-13T17:02:37.637Z,17.00
2022-12-13T17:05:06.116Z,16.85
2022-12-13T17:07:35.681Z,16.95
2022-12-13T17:10:03.613Z,17.25
2022-12-13T17:12:30.891Z,17.20
2022-12-13T17:14:58.358Z,17.75
2022-12-13T17:17:25.631Z,17.45
2022-12-13T17:19:54.238Z,16.48
2022-12-13T17:22:21.580Z,16.55
2022-12-13T17:24:48.727Z,17.60
2022-12-13T17:27:16.178Z,16.67
2022-12-13T17:29:43.186Z,16.25
2022-12-13T17:32:10.102Z,16.05
2022-12-13T17:34:37.214Z,17.10
2022-12-13T17:37:10.025Z,19.40
2022-12-13T17:39:37.458Z,17.23
2022-12-13T17:42:04.955Z,14.48
2022-12-13T17:44:32.021Z,16.73
2022-12-13T17:46:59.249Z,16.05
2022-12-13T17:49:27.777Z,14.68
2022-12-13T17:51:55.236Z,15.93
2022-12-13T17:54:23.963Z,15.90
2022-12-13T17:56:51.950Z,16.25
2022-12-13T17:59:20.460Z,14.90
2022-12-13T18:01:48.583Z,14.48
2022-12-13T18:04:15.972Z,15.45
2022-12-13T18:06:43.249Z,14.95
2022-12-13T18:09:12.490Z,16.10
2022-12-13T18:11:40.141Z,14.90
2022-12-13T18:14:08.909Z,14.30
2022-12-13T18:16:38.233Z,16.38
2022-12-13T18:19:07.497Z,15.52
2022-12-13T18:21:37.312Z,14.93
2022-12-13T18:24:09.570Z,15.85
2022-12-13T18:29:04.649Z,14.30
2022-12-13T18:31:32.284Z,15.68
2022-12-13T18:33:59.874Z,14.98
2022-12-13T18:36:27.138Z,14.30
2022-12-13T18:38:54.335Z,15.27
2022-12-13T18:41:24.670Z,15.30
2022-12-13T18:44:04.131Z,14.77
2022-12-13T18:46:35.199Z,13.50
2022-12-13T18:49:03.018Z,13.90
2022-12-13T18:51:30.134Z,15.05
2022-12-13T18:53:57.491Z,14.18
2022-12-13T18:56:25.019Z,15.27
2022-12-13T18:58:52.652Z,13.73
2022-12-13T19:01:21.253Z,14.60
2022-12-13T19:03:49.393Z,14.10
2022-12-13T19:06:20.293Z,13.30
2022-12-13T19:08:49.371Z,14.63
2022-12-13T19:11:16.587Z,14.63
2022-12-13T19:13:43.841Z,14.43
2022-12-13T19:16:14.476Z,13.82
2022-12-13T19:18:42.487Z,16.08
2022-12-13T19:21:12.625Z,13.20
2022-12-13T19:23:40.875Z,15.65
2022-12-13T19:26:13.366Z,15.50
2022-12-13T19:28:41.679Z,14.38
2022-12-13T19:31:11.148Z,14.07
2022-12-13T19:33:38.459Z,14.13
2022-12-13T19:36:06.841Z,13.07
2022-12-13T19:38:34.502Z,13.75
2022-12-13T19:41:09.664Z,15.75
2022-12-13T19:43:36.896Z,14.55
2022-12-13T19:46:04.462Z,14.02
2022-12-13T19:48:32.406Z,16.45
2022-12-13T19:51:05.387Z,14.90
2022-12-13T19:53:32.762Z,13.55
2022-12-13T19:56:01.178Z,14.25
2022-12-13T19:58:28.710Z,13.27
2022-12-13T20:01:02.767Z,13.98
2022-12-13T20:03:38.233Z,14.43
2022-12-13T20:06:07.071Z,14.45
2022-12-13T20:08:34.733Z,14.38
2022-12-13T20:11:13.854Z,13.88
2022-12-13T20:13:41.486Z,15.00
2022-12-13T20:16:15.216Z,13.07
2022-12-13T20:18:42.287Z,12.85
2022-12-13T20:21:12.649Z,13.00
2022-12-13T20:23:42.260Z,13.40
2022-12-13T20:26:21.880Z,14.30
2022-12-13T20:28:50.407Z,15.00
2022-12-13T20:31:23.712Z,14.75
2022-12-13T20:33:56.295Z,13.45
2022-12-13T20:36:27.912Z,14.32
2022-12-13T20:38:57.198Z,12.85
2022-12-13T20:41:27.556Z,13.15
2022-12-13T20:43:56.347Z,14.85
2022-12-13T20:46:24.554Z,14.45
2022-12-13T20:48:52.543Z,13.77
2022-12-13T20:51:22.716Z,13.40
2022-12-13T20:53:51.694Z,12.98
2022-12-13T20:56:21.355Z,13.38
2022-12-13T20:58:48.709Z,14.82
2022-12-13T21:01:20.456Z,14.65
2022-12-13T21:03:48.038Z,14.80
2022-12-13T21:06:15.322Z,14.65
2022-12-13T21:08:51.167Z,14.32
2022-12-13T21:11:30.372Z,14.75
2022-12-13T21:14:10.958Z,13.65
2022-12-13T21:16:43.696Z,15.70
2022-12-13T21:19:14.352Z,14.75
2022-12-13T21:21:41.503Z,14.68
2022-12-13T21:24:09.323Z,14.05
2022-12-13T21:26:36.768Z,13.82
2022-12-13T21:29:06.789Z,14.70
2022-12-13T21:31:36.128Z,14.25
2022-12-13T21:34:04.070Z,15.57
2022-12-13T21:36:36.369Z,14.88
2022-12-13T21:39:08.484Z,13.88
2022-12-13T21:41:35.514Z,14.68
2022-12-13T21:44:02.829Z,14.05
2022-12-13T21:46:47.789Z,13.82
2022-12-13T21:49:17.559Z,13.32
2022-12-13T21:51:47.793Z,13.65
2022-12-13T21:54:17.604Z,12.85
2022-12-13T21:57:03.090Z,13.15
2022-12-13T21:59:30.950Z,13.77
2022-12-13T22:02:13.298Z,13.98
2022-12-13T22:04:53.624Z,13.25
2022-12-13T22:07:26.141Z,13.55
2022-12-13T22:09:54.530Z,13.43
2022-12-13T22:12:32.108Z,12.85
2022-12-13T22:14:59.565Z,14.20
2022-12-13T22:17:34.763Z,13.15
2022-12-13T22:20:05.740Z,14.23
2022-12-13T22:22:33.176Z,13.98
2022-12-13T22:25:00.686Z,14.98
2022-12-13T22:27:27.886Z,12.15
2022-12-13T22:29:57.395Z,13.27
2022-12-13T22:32:30.435Z,13.70
2022-12-13T22:34:57.449Z,13.32
2022-12-13T22:37:25.031Z,13.32
2022-12-13T22:39:52.066Z,12.85
2022-12-13T22:42:19.843Z,13.90
2022-12-13T22:44:47.093Z,13.50
2022-12-13T22:47:14.203Z,13.18
2022-12-13T22:49:41.431Z,13.82
2022-12-13T22:52:09.170Z,13.93
2022-12-13T22:54:36.378Z,13.48
2022-12-13T22:57:04.164Z,12.50
2022-12-13T22:59:31.396Z,14.02
2022-12-13T23:02:02.761Z,12.98
2022-12-13T23:04:32.997Z,13.57
2022-12-13T23:07:00.202Z,13.13
2022-12-13T23:09:27.658Z,13.20
2022-12-13T23:12:13.217Z,12.68
2022-12-13T23:14:40.452Z,13.30
2022-12-13T23:17:07.662Z,12.93
2022-12-13T23:19:49.379Z,13.77
2022-12-13T23:22:23.402Z,13.63
2022-12-13T23:24:51.890Z,12.52
2022-12-13T23:27:21.456Z,13.57
2022-12-13T23:29:48.536Z,13.02
2022-12-13T23:32:15.852Z,12.73
2022-12-13T23:34:43.160Z,12.52
2022-12-13T23:37:10.243Z,13.50
2022-12-13T23:39:37.214Z,12.50
2022-12-13T23:42:04.186Z,13.77
2022-12-13T23:44:31.359Z,12.65
2022-12-13T23:46:58.349Z,12.45
2022-12-13T23:49:25.350Z,13.30
2022-12-13T23:51:52.310Z,12.93
2022-12-13T23:54:20.530Z,12.52
2022-12-13T23:56:48.586Z,11.73
2022-12-13T23:59:16.664Z,12.75
